Sauquoit, NY (13456)

3:34 AM EST on December 07, 2016 (GMT -0500)
Southern New Hartford, NY | | Change Station
Active Advisory: Lake Effect Snow Watch Active Notice: Public Information Statement

Elev 874 ft 43.03 °N, 75.25 °W | Updated 19 seconds ago

Overcast
Overcast
32.2 °F
Feels Like 32 °F
N
2.0
Wind Variable Wind from SE

Today
High -- | Low -- °F
--% Chance of Precip.
Yesterday
High -- | Low -- °F
Precip. -- in
Pressure 29.89 in
Visibility 4.0 miles
Clouds Mostly Cloudy 2100 ft
Overcast 3400 ft
Windchill 32 °F
Dew Point 32 °F
Humidity 100%
Rainfall 0.00 in
Snow Depth Not available.
7:19 AM 4:26 PM
Waxing Crescent, 50% visible
SPECI KRME 070826Z AUTO 12004KT 4SM UP BR BKN021 OVC034 01/01 A2989 RMK AO2 UPB18SNE0759 P0000 T00060006
Pressure 29.89 in
Visibility 4.0 miles
Clouds Mostly Cloudy 2100 ft
Overcast 3400 ft
Windchill 32 °F
Dew Point 32 °F
Humidity 100%
Rainfall 0.00 in
Snow Depth Not available.
7:19 AM 4:26 PM
Waxing Crescent, 50% visible
SPECI KRME 070826Z AUTO 12004KT 4SM UP BR BKN021 OVC034 01/01 A2989 RMK AO2 UPB18SNE0759 P0000 T00060006

10-Day Weather Forecast

Almanac

Astronomy

Dec. 07, 2016 Rise Set
Actual Time
Civil Twilight
Nautical Twilight
Astronomical Twilight
Moon
Length of Visible Light
Length of Day
Tomorrow will be .
, % of the Moon is Illuminated

Today's Extremes

State Highs State Lows

Community

WunderPhotos

Upload Photos

1,956,104 photos uploaded!

WunderBlog® & News

Nearby

Air Quality

  Air Quality AQ Index Pollutant
Not available.

Snow Depth

Station Depth Elevation

Earthquake Activity

City Distance Mag. Time & Date
Minimum magnitude displayed is 2.5.

Coastal Water Temperatures

Place Temperature

Stations

Nearby Weather Stations

Station Location Temp. Windchill Dew Point Humidity Wind Precip. Elev Updated Type
                   

Watches & Warnings

Lake Effect Snow Watch
Issued: 3:07 AM EST Dec. 7, 2016 – National Weather Service

... Lake effect snow watch remains in effect from Thursday evening
through late Friday night...

* locations... southern Oneida, Cayuga, Onondaga and Madison
counties.

* Accumulations... a foot or more of snow possible in the most
persistent lake effect snow bands.

* Timing... mainly after midnight Thursday night through Friday
night.

* Impacts... heavy lake effect snow will lead to significant
accumulations of snow along with very poor visibilities at
times. This will result in very dangerous travel.

* Winds... west 10 to 20 mph with gusts up to 30 mph.

* Temperatures... in the mid 20s.

Precautionary/preparedness actions...

A lake effect snow watch means there is a potential for a large
amount of snow in only a few hours. Visibilities and depth of
snow can vary greatly... impacting travel significantly. Continue
to monitor the latest forecasts.



Mundschenk